Dravosburg, PA (15034)

6:09 PM EDT on May 03, 2015 (GMT -0400)
West Mifflin | | Change Station
CLOSE
Current Station
Personal Weather Station
Location: West Mifflin, PA
Elevation: 1132 ft
Nearby Weather Stations

Elev 1132 ft 40.36 °N, 79.91 °W | Updated 2 seconds ago

Overcast
Overcast
77.7 °F
Feels Like 78 °F
N
6.3
Wind Variable Wind from WSW
Gusts 7.4 mph

Today
High -- | Low -- °F
--% Chance of Precip.
Yesterday
High -- | Low -- °F
Precip. -- in
6:16 AM 8:16 PM
Full, 100% visible
Pressure 30.09 in
Visibility 10.0 miles
Clouds Overcast 9000 ft
Heat Index 78 °F
Dew Point 37 °F
Humidity 23%
Rainfall 0.00 in
Snow Depth Not available.
UV 2.0 out of 12
Pollen 10.70 out of 12
Air Quality Not available.
Flu Activity Sporadic
METAR KAGC 032153Z AUTO 20005KT 10SM OVC090 24/03 A3009 RMK AO2 SLP189 T02390028 TSNO $

More Conditions Fewer Conditions

Pressure 30.09 in
Visibility 10.0 miles
Clouds Overcast 9000 ft
Heat Index 78 °F
Dew Point 37 °F
Humidity 23%
Rainfall 0.00 in
Snow Depth Not available.
UV 2.0 out of 12
Pollen 10.70 out of 12
Air Quality Not available.
Flu Activity Sporadic
METAR KAGC 032153Z AUTO 20005KT 10SM OVC090 24/03 A3009 RMK AO2 SLP189 T02390028 TSNO $

More Conditions Fewer Conditions

Nepal has a long way to go to dig out and rebuild from a devastating earthquake. We have teamed up with several charities and organizations to make contributing to the relief effort as easy as possible.
How you can help: Portlight Strategies | Red Cross

10-Day Weather Forecast

Almanac

Astronomy

May. 03, 2015 Rise Set
Actual Time
Civil Twilight
Nautical Twilight
Astronomical Twilight
Moon
Length of Visible Light
Length of Day
Tomorrow will be .
, % of the Moon is Illuminated

Today's Extremes

State Highs State Lows

Community

WunderPhotos

Upload Photos

1,818,382 photos uploaded!

WunderBlogs® & News

Nearby

Air Quality

  Air Quality AQ Index Pollutant
Not available.

Snow Depth

Station Depth Elevation

Earthquake Activity

City Distance Mag. Time & Date
Minimum magnitude displayed is 2.5.

Coastal Water Temperatures

Place Temperature

Stations

Nearby Weather Stations

Station Location Temp. Windchill Dew Point Humidity Wind Precip. Elev Updated Type